Time;durP1;ratioP1;P1;durP2;ratioP2;P2;SDS_P1;SDS_P2;PMS_P1;PMS_P2;Temp;Humidity;BMP_temperature;BMP_pressure;BME280_temperature;BME280_humidity;BME280_pressure;Samples;Min_cycle;Max_cycle;Signal;HPM_P1;HPM_P2
2022/03/06 00:00:47;;;;;;;;;94.67;67.67;;;;;13.26;58.41;101716.81;5082200;28;61812;-76
2022/03/06 00:03:12;;;;;;;;;95.00;73.33;;;;;13.28;58.65;101717.84;5099555;27;61755;-76
2022/03/06 00:05:38;;;;;;;;;93.33;69.00;;;;;13.24;58.79;101718.47;5082605;28;62569;-76
2022/03/06 00:08:04;;;;;;;;;93.67;75.00;;;;;13.24;58.29;101715.84;5083687;27;61750;-76
2022/03/06 00:10:30;;;;;;;;;98.00;68.33;;;;;13.19;58.48;101717.31;5083515;28;62145;-76
2022/03/06 00:12:56;;;;;;;;;93.33;66.33;;;;;13.18;58.62;101718.16;5083759;28;61792;-76
2022/03/06 00:15:23;;;;;;;;;93.33;68.00;;;;;13.14;57.54;101725.88;5082974;28;62957;-76
2022/03/06 00:17:49;;;;;;;;;101.00;73.00;;;;;13.05;58.34;101719.31;5083483;27;61880;-76
2022/03/06 00:20:15;;;;;;;;;95.33;66.00;;;;;13.05;58.12;101715.78;5081726;28;61936;-76
2022/03/06 00:22:41;;;;;;;;;101.33;71.00;;;;;13.05;58.05;101723.69;5082474;28;62368;-76
2022/03/06 00:25:07;;;;;;;;;87.00;67.67;;;;;13.01;57.63;101719.09;5082631;27;62717;-76
2022/03/06 00:27:33;;;;;;;;;100.00;68.67;;;;;13.00;57.78;101726.06;5081755;28;61846;-76
2022/03/06 00:29:59;;;;;;;;;95.00;69.33;;;;;12.94;57.42;101730.13;5083274;27;61965;-76
2022/03/06 00:32:25;;;;;;;;;92.33;74.67;;;;;12.91;57.43;101722.09;5081881;28;62152;-76
2022/03/06 00:34:50;;;;;;;;;98.33;67.00;;;;;12.92;56.81;101723.88;5082177;27;62582;-76
2022/03/06 00:37:16;;;;;;;;;98.33;72.00;;;;;12.84;56.80;101721.78;5083174;28;61854;-76
2022/03/06 00:39:42;;;;;;;;;88.67;63.67;;;;;12.79;56.91;101717.09;5081707;28;62137;-76
2022/03/06 00:42:09;;;;;;;;;94.33;68.00;;;;;12.80;56.64;101716.28;5099146;27;62209;-76
2022/03/06 00:44:34;;;;;;;;;100.00;73.00;;;;;12.79;56.60;101718.00;5082276;27;63158;-76
2022/03/06 00:47:00;;;;;;;;;92.00;66.00;;;;;12.79;56.31;101723.28;5081482;28;61925;-76
2022/03/06 00:49:26;;;;;;;;;87.00;63.67;;;;;12.72;55.82;101713.25;5081301;28;62088;-76
2022/03/06 00:51:51;;;;;;;;;91.33;63.33;;;;;12.69;55.95;101721.00;5083245;28;61845;-76
2022/03/06 00:54:17;;;;;;;;;90.67;64.33;;;;;12.69;55.75;101726.28;5082279;27;61983;-76
2022/03/06 00:56:42;;;;;;;;;89.67;68.67;;;;;12.67;55.81;101722.66;5081409;27;62030;-76
2022/03/06 00:59:08;;;;;;;;;96.67;65.00;;;;;12.67;55.62;101720.91;5082874;27;62186;-76
2022/03/06 01:01:34;;;;;;;;;92.33;65.00;;;;;12.68;55.09;101725.38;5082534;27;61815;-76
2022/03/06 01:03:59;;;;;;;;;90.00;63.67;;;;;12.64;54.81;101723.41;5082295;28;61748;-76
2022/03/06 01:06:25;;;;;;;;;91.00;65.00;;;;;12.67;55.09;101727.91;5082383;28;61916;-76
2022/03/06 01:08:50;;;;;;;;;93.67;69.33;;;;;12.65;54.83;101729.56;5082620;27;61696;-76
2022/03/06 01:11:16;;;;;;;;;94.00;67.33;;;;;12.64;55.00;101727.78;5081387;28;62058;-76
2022/03/06 01:13:41;;;;;;;;;95.00;65.00;;;;;12.61;54.56;101728.50;5082136;27;61836;-76
2022/03/06 01:16:07;;;;;;;;;96.00;67.33;;;;;12.60;54.32;101728.44;5082408;28;61887;-76
2022/03/06 01:18:33;;;;;;;;;81.33;62.33;;;;;12.57;54.08;101731.78;5086461;28;61758;-76
2022/03/06 01:20:58;;;;;;;;;87.00;61.67;;;;;12.51;54.26;101726.25;5085756;27;62089;-76
2022/03/06 01:23:24;;;;;;;;;92.33;67.67;;;;;12.47;53.94;101727.81;5084306;28;63541;-76
2022/03/06 01:25:49;;;;;;;;;93.33;68.00;;;;;12.50;54.00;101728.78;5101867;27;61781;-76
2022/03/06 01:28:15;;;;;;;;;94.75;68.25;;;;;12.48;54.12;101733.97;5084506;28;61949;-76
2022/03/06 01:30:40;;;;;;;;;83.67;63.67;;;;;12.48;54.08;101734.88;5086015;28;61781;-76
2022/03/06 01:33:06;;;;;;;;;88.67;63.33;;;;;12.46;53.79;101723.34;5085591;27;61743;-75
2022/03/06 01:35:31;;;;;;;;;85.00;63.00;;;;;12.42;53.82;101724.00;5085481;27;61726;-76
2022/03/06 01:37:57;;;;;;;;;89.33;63.67;;;;;12.39;53.84;101729.13;5086212;27;61895;-76
2022/03/06 01:40:22;;;;;;;;;87.67;63.00;;;;;12.34;53.48;101734.97;5085900;28;61758;-76
2022/03/06 01:42:49;;;;;;;;;83.00;63.00;;;;;12.29;53.57;101737.38;5085492;28;61887;-76
2022/03/06 01:45:16;;;;;;;;;88.00;66.00;;;;;12.24;53.33;101733.59;5085426;28;61800;-75
2022/03/06 01:47:48;;;;;;;;;92.33;64.00;;;;;12.18;53.43;101738.53;5086088;27;61830;-76
2022/03/06 01:50:27;;;;;;;;;90.00;65.00;;;;;12.20;53.41;101736.88;5085198;27;62019;-76
2022/03/06 01:52:54;;;;;;;;;86.33;65.67;;;;;12.21;53.34;101739.59;5065031;28;62835;-76
2022/03/06 01:55:22;;;;;;;;;88.00;65.33;;;;;12.12;53.37;101741.72;5064078;28;61810;-76
2022/03/06 01:57:48;;;;;;;;;83.33;61.33;;;;;12.07;53.44;101736.22;5075631;27;61958;-76
2022/03/06 02:00:23;;;;;;;;;84.67;62.67;;;;;12.03;53.15;101729.00;5085352;27;61985;-76
2022/03/06 02:02:49;;;;;;;;;87.33;66.00;;;;;12.01;53.16;101733.25;5085128;28;61902;-76
2022/03/06 02:05:15;;;;;;;;;85.33;61.67;;;;;11.95;53.23;101742.56;5085061;27;61748;-76
2022/03/06 02:07:40;;;;;;;;;91.33;66.33;;;;;11.93;53.41;101742.47;5084262;28;61835;-76
2022/03/06 02:10:08;;;;;;;;;84.67;64.00;;;;;11.88;52.96;101749.22;5085555;27;61868;-76
2022/03/06 02:12:34;;;;;;;;;81.33;62.67;;;;;11.83;53.18;101737.50;5084953;27;63176;-76
2022/03/06 02:15:02;;;;;;;;;82.00;60.00;;;;;11.79;52.88;101740.78;5085088;27;62162;-76
2022/03/06 02:17:28;;;;;;;;;91.67;65.00;;;;;11.74;52.91;101742.25;5084070;28;61912;-76
2022/03/06 02:20:11;;;;;;;;;89.00;65.67;;;;;11.71;52.58;101734.19;5085135;27;61996;-76
2022/03/06 02:22:43;;;;;;;;;82.33;61.67;;;;;11.70;52.93;101738.56;5083513;28;63809;-76
2022/03/06 02:25:12;;;;;;;;;86.67;63.67;;;;;11.68;53.10;101731.41;5083755;28;62072;-76
2022/03/06 02:27:38;;;;;;;;;84.33;61.67;;;;;11.70;52.64;101732.38;5082612;28;61822;-76
2022/03/06 02:30:06;;;;;;;;;81.00;62.00;;;;;11.66;52.41;101731.31;5084929;28;62052;-76
2022/03/06 02:32:32;;;;;;;;;86.00;63.33;;;;;11.58;52.55;101724.72;5083415;28;63888;-76
2022/03/06 02:34:57;;;;;;;;;81.67;60.67;;;;;11.53;52.58;101721.84;5083400;28;61810;-76
2022/03/06 02:37:23;;;;;;;;;92.67;64.00;;;;;11.49;52.21;101729.50;5085091;27;61968;-76
2022/03/06 02:39:48;;;;;;;;;80.33;59.33;;;;;11.41;52.32;101729.03;5085295;27;61841;-75
2022/03/06 02:42:30;;;;;;;;;83.00;63.00;;;;;11.37;52.64;101727.06;5084116;28;62422;-75
2022/03/06 02:44:56;;;;;;;;;85.00;62.67;;;;;11.36;52.59;101738.41;5084669;27;62237;-75
2022/03/06 02:47:22;;;;;;;;;82.00;63.33;;;;;11.35;52.77;101736.59;5085245;27;62004;-75
2022/03/06 02:49:47;;;;;;;;;74.00;58.00;;;;;11.31;52.54;101740.78;5084506;27;61937;-75
2022/03/06 02:52:13;;;;;;;;;88.33;64.00;;;;;11.30;52.49;101741.59;5082600;28;63529;-75
2022/03/06 02:54:39;;;;;;;;;79.67;60.00;;;;;11.25;52.13;101738.69;5084824;27;62132;-75
2022/03/06 02:57:05;;;;;;;;;81.00;61.33;;;;;11.22;52.18;101746.38;5084375;27;61853;-75
2022/03/06 02:59:30;;;;;;;;;79.00;61.00;;;;;11.20;52.12;101742.81;5084820;27;62200;-75
2022/03/06 03:01:56;;;;;;;;;83.00;62.00;;;;;11.19;52.23;101743.59;5084164;28;63120;-75
2022/03/06 03:04:21;;;;;;;;;81.33;60.00;;;;;11.12;51.62;101735.25;5084447;28;61754;-75
2022/03/06 03:06:50;;;;;;;;;82.33;59.67;;;;;11.00;51.36;101748.63;5084365;27;61808;-75
2022/03/06 03:09:19;;;;;;;;;82.67;58.00;;;;;10.97;52.09;101735.31;5084884;27;62064;-75
2022/03/06 03:11:46;;;;;;;;;85.00;60.33;;;;;10.93;51.72;101738.59;5082258;28;64564;-75
2022/03/06 03:14:13;;;;;;;;;81.00;61.67;;;;;10.88;52.10;101742.63;5083035;28;61755;-75
2022/03/06 03:16:39;;;;;;;;;87.33;60.67;;;;;10.78;52.10;101742.09;5084510;27;61849;-75
2022/03/06 03:19:05;;;;;;;;;81.33;62.33;;;;;10.73;52.28;101735.69;5084809;27;62549;-75
2022/03/06 03:21:30;;;;;;;;;80.33;62.67;;;;;10.73;52.50;101738.31;5098936;27;63843;-75
2022/03/06 03:23:56;;;;;;;;;87.33;63.33;;;;;10.74;52.55;101741.84;5084526;27;61883;-75
2022/03/06 03:26:21;;;;;;;;;85.00;65.00;;;;;10.76;52.07;101735.88;5082439;28;62223;-75
2022/03/06 03:28:47;;;;;;;;;86.00;64.33;;;;;10.73;52.17;101733.06;5084360;27;61958;-75
2022/03/06 03:31:13;;;;;;;;;85.00;62.33;;;;;10.69;52.06;101733.69;5083668;27;62647;-75
2022/03/06 03:33:38;;;;;;;;;87.33;65.33;;;;;10.67;52.45;101743.22;5084200;27;61778;-76
2022/03/06 03:36:04;;;;;;;;;86.67;63.33;;;;;10.64;52.24;101751.78;5083931;28;61965;-75
2022/03/06 03:38:30;;;;;;;;;81.00;62.33;;;;;10.64;52.04;101758.75;5083983;27;61770;-76
2022/03/06 03:40:55;;;;;;;;;87.33;63.00;;;;;10.59;52.37;101742.75;5082849;27;61931;-75
2022/03/06 03:43:21;;;;;;;;;85.67;62.00;;;;;10.51;52.34;101743.09;5084074;27;61893;-75
2022/03/06 03:45:46;;;;;;;;;84.00;61.33;;;;;10.49;52.15;101749.97;5082191;28;61760;-76
2022/03/06 03:48:12;;;;;;;;;80.67;60.00;;;;;10.52;52.43;101763.25;5083978;27;61794;-75
2022/03/06 03:50:37;;;;;;;;;86.67;64.33;;;;;10.53;52.50;101757.22;5081248;28;63570;-75
2022/03/06 03:53:03;;;;;;;;;92.33;64.00;;;;;10.51;52.84;101764.09;5083982;27;61941;-75
2022/03/06 03:55:28;;;;;;;;;86.67;64.00;;;;;10.51;52.64;101762.38;5082314;28;61777;-75
2022/03/06 03:57:54;;;;;;;;;86.33;65.67;;;;;10.53;52.83;101767.72;5084053;27;62087;-75
2022/03/06 04:00:19;;;;;;;;;86.67;65.33;;;;;10.51;52.42;101769.34;5082957;27;61914;-75
2022/03/06 04:02:45;;;;;;;;;89.33;63.33;;;;;10.51;52.76;101769.34;5083677;27;61811;-75
2022/03/06 04:05:10;;;;;;;;;87.33;63.00;;;;;10.50;52.72;101767.56;5083637;27;61831;-75
2022/03/06 04:07:36;;;;;;;;;83.67;65.67;;;;;10.48;52.59;101769.16;5083793;28;61734;-75
2022/03/06 04:10:01;;;;;;;;;92.33;64.67;;;;;10.48;52.25;101777.94;5081483;28;65054;-75
2022/03/06 04:12:27;;;;;;;;;86.67;64.67;;;;;10.47;52.14;101773.50;5083483;27;62006;-75
2022/03/06 04:14:52;;;;;;;;;82.67;63.33;;;;;10.40;52.38;101777.47;5082071;28;61856;-75
2022/03/06 04:17:17;;;;;;;;;86.00;65.00;;;;;10.40;52.32;101784.44;5083791;27;61761;-76
2022/03/06 04:19:43;;;;;;;;;83.67;60.67;;;;;10.37;52.50;101785.16;5081173;28;63597;-75
2022/03/06 04:22:08;;;;;;;;;83.00;60.67;;;;;10.34;52.57;101787.59;5083187;27;62303;-75
2022/03/06 04:24:34;;;;;;;;;90.33;65.00;;;;;10.32;52.80;101783.97;5083437;27;61728;-75
2022/03/06 04:26:59;;;;;;;;;91.00;63.00;;;;;10.29;52.78;101788.09;5081792;28;62244;-75
2022/03/06 04:29:25;;;;;;;;;84.33;59.00;;;;;10.21;52.96;101782.38;5082708;27;61785;-75
2022/03/06 04:31:50;;;;;;;;;79.00;60.00;;;;;10.20;53.27;101791.06;5081798;28;62005;-75
2022/03/06 04:34:15;;;;;;;;;83.33;62.67;;;;;10.19;53.06;101786.63;5083373;27;61795;-75
2022/03/06 04:36:41;;;;;;;;;82.67;64.00;;;;;10.13;53.04;101787.16;5083150;27;61936;-75
2022/03/06 04:39:07;;;;;;;;;87.67;64.33;;;;;10.11;53.13;101795.72;5082408;28;61729;-75
2022/03/06 04:41:33;;;;;;;;;81.67;60.33;;;;;10.09;53.17;101799.97;5082893;27;61776;-75
2022/03/06 04:43:58;;;;;;;;;91.33;66.00;;;;;10.10;53.34;101800.06;5083237;27;61778;-76
2022/03/06 04:46:24;;;;;;;;;89.33;61.00;;;;;10.11;53.11;101809.75;5083104;27;61720;-75
2022/03/06 04:48:50;;;;;;;;;87.00;65.00;;;;;10.12;53.27;101798.44;5081078;28;64766;-75
2022/03/06 04:51:15;;;;;;;;;87.33;63.00;;;;;10.09;53.20;101799.97;5081399;27;61931;-75
2022/03/06 04:53:41;;;;;;;;;85.67;66.00;;;;;10.10;53.58;101801.78;5098745;27;62151;-75
2022/03/06 04:56:06;;;;;;;;;82.00;63.00;;;;;10.10;53.49;101800.06;5083132;27;62159;-75
2022/03/06 04:58:32;;;;;;;;;75.00;60.33;;;;;10.07;53.34;101809.44;5082569;27;62208;-75
2022/03/06 05:00:57;;;;;;;;;83.67;63.00;;;;;10.03;53.41;101813.63;5082524;27;61839;-75
2022/03/06 05:03:23;;;;;;;;;83.00;60.67;;;;;10.02;53.04;101804.81;5083146;27;61873;-75
2022/03/06 05:05:49;;;;;;;;;92.00;63.33;;;;;10.01;53.42;101807.38;5082906;27;62041;-75
2022/03/06 05:08:15;;;;;;;;;83.00;62.00;;;;;9.98;53.81;101804.53;5082063;28;62130;-75
2022/03/06 05:10:41;;;;;;;;;80.00;60.00;;;;;9.96;53.63;101799.22;5081316;28;62059;-76
2022/03/06 05:13:07;;;;;;;;;90.33;62.00;;;;;9.94;53.40;101815.63;5082748;27;61879;-75
2022/03/06 05:15:32;;;;;;;;;83.33;61.33;;;;;9.90;53.14;101813.66;5082887;27;61876;-75
2022/03/06 05:17:58;;;;;;;;;86.33;62.67;;;;;9.84;53.96;101814.16;5080879;28;64955;-75
2022/03/06 05:20:24;;;;;;;;;86.67;65.67;;;;;9.85;53.93;101809.81;5097704;27;62067;-75
2022/03/06 05:22:49;;;;;;;;;92.67;63.33;;;;;9.87;53.90;101822.22;5082629;27;61891;-75
2022/03/06 05:25:15;;;;;;;;;85.67;60.00;;;;;9.85;53.63;101820.31;5081322;28;61769;-75
2022/03/06 05:27:41;;;;;;;;;86.67;65.67;;;;;9.86;53.50;101820.41;5081858;27;61861;-75
2022/03/06 05:30:09;;;;;;;;;83.33;61.00;;;;;9.85;53.80;101826.44;5082106;28;61900;-75
2022/03/06 05:32:35;;;;;;;;;88.67;65.67;;;;;9.77;53.95;101831.22;5082768;28;61794;-75
2022/03/06 05:35:00;;;;;;;;;87.00;64.67;;;;;9.78;53.57;101834.75;5082299;27;61914;-75
2022/03/06 05:37:26;;;;;;;;;86.33;61.33;;;;;9.79;53.62;101831.28;5080338;28;64074;-75
2022/03/06 05:39:51;;;;;;;;;85.00;61.33;;;;;9.79;53.69;101826.06;5082353;28;61967;-75
2022/03/06 05:42:17;;;;;;;;;87.00;63.67;;;;;9.82;53.59;101823.66;5082465;27;61695;-75
2022/03/06 05:44:43;;;;;;;;;88.00;65.33;;;;;9.83;53.78;101825.44;5081231;28;61807;-75
2022/03/06 05:47:08;;;;;;;;;86.67;63.67;;;;;9.76;53.86;101829.38;5097498;27;65039;-75
2022/03/06 05:49:34;;;;;;;;;95.67;67.00;;;;;9.75;53.88;101834.56;5082214;27;62049;-75
2022/03/06 05:51:59;;;;;;;;;85.00;65.33;;;;;9.75;53.79;101832.84;5081650;28;62148;-75
2022/03/06 05:54:24;;;;;;;;;88.67;62.00;;;;;9.75;53.77;101834.56;5081215;28;61973;-75
2022/03/06 05:56:50;;;;;;;;;88.67;61.67;;;;;9.71;53.40;101843.03;5081277;27;62069;-75
2022/03/06 05:59:15;;;;;;;;;88.33;65.33;;;;;9.67;53.81;101841.91;5080965;28;61710;-75
2022/03/06 06:01:41;;;;;;;;;88.33;64.67;;;;;9.62;53.84;101851.22;5081464;28;61869;-75
2022/03/06 06:04:06;;;;;;;;;87.33;62.67;;;;;9.57;54.14;101845.63;5085772;27;62387;-75
2022/03/06 06:06:32;;;;;;;;;87.67;61.33;;;;;9.55;54.02;101843.72;5084471;28;63448;-75
2022/03/06 06:08:57;;;;;;;;;87.33;61.33;;;;;9.55;54.14;101847.25;5085421;28;61917;-75
2022/03/06 06:11:23;;;;;;;;;86.67;63.00;;;;;9.57;53.61;101855.22;5084150;28;61980;-75
2022/03/06 06:13:48;;;;;;;;;90.33;66.67;;;;;9.52;54.07;101852.31;5101477;27;61842;-75
2022/03/06 06:16:14;;;;;;;;;89.33;63.33;;;;;9.53;53.66;101855.81;5084592;27;61966;-75
2022/03/06 06:18:40;;;;;;;;;87.33;65.00;;;;;9.46;54.23;101857.13;5083993;28;61826;-75
2022/03/06 06:21:06;;;;;;;;;91.00;63.67;;;;;9.40;54.58;101852.41;5083318;28;61984;-75
2022/03/06 06:23:32;;;;;;;;;84.67;65.67;;;;;9.31;54.22;101858.75;5084195;28;61909;-75
2022/03/06 06:25:57;;;;;;;;;85.00;66.00;;;;;9.33;54.13;101854.50;5082974;28;63520;-75
2022/03/06 06:28:23;;;;;;;;;88.00;62.33;;;;;9.30;54.72;101863.09;5085099;27;61926;-75
2022/03/06 06:30:48;;;;;;;;;94.67;67.67;;;;;9.27;54.51;101859.34;5084908;28;61864;-75
2022/03/06 06:33:14;;;;;;;;;88.00;65.67;;;;;9.23;54.13;101859.94;5085610;27;61869;-75
2022/03/06 06:35:39;;;;;;;;;88.00;64.67;;;;;9.19;54.64;101872.84;5082316;28;63507;-75
2022/03/06 06:38:06;;;;;;;;;92.00;67.33;;;;;9.21;54.60;101865.06;5085207;27;61700;-75
2022/03/06 06:40:31;;;;;;;;;88.00;64.00;;;;;9.14;54.73;101866.38;5083501;28;61751;-75
2022/03/06 06:42:57;;;;;;;;;86.67;65.00;;;;;9.12;54.59;101870.59;5083161;28;61842;-75
2022/03/06 06:45:23;;;;;;;;;92.00;67.67;;;;;9.19;55.01;101878.09;5082881;28;63686;-75
2022/03/06 06:47:48;;;;;;;;;93.67;68.33;;;;;9.28;54.64;101877.78;5100574;27;61845;-75
2022/03/06 06:50:14;;;;;;;;;99.00;69.33;;;;;9.32;54.50;101871.03;5084279;27;61865;-76
2022/03/06 06:52:39;;;;;;;;;95.00;67.33;;;;;9.34;53.97;101872.97;5083486;28;62314;-75
2022/03/06 06:55:06;;;;;;;;;84.00;65.67;;;;;9.36;53.91;101875.66;5082835;28;63888;-75
2022/03/06 06:57:32;;;;;;;;;97.67;67.67;;;;;9.38;54.09;101875.00;5084068;27;61914;-75
2022/03/06 06:59:58;;;;;;;;;88.00;66.00;;;;;9.36;54.25;101876.59;5084614;28;61938;-75
2022/03/06 07:02:24;;;;;;;;;90.33;69.00;;;;;9.38;54.61;101874.06;5084590;28;61891;-75
2022/03/06 07:04:50;;;;;;;;;93.67;70.67;;;;;9.41;54.07;101876.91;5083478;27;61913;-75
2022/03/06 07:07:15;;;;;;;;;96.00;67.67;;;;;9.42;54.54;101882.22;5084437;28;62118;-75
2022/03/06 07:09:41;;;;;;;;;89.00;67.67;;;;;9.42;53.91;101882.22;5084438;28;62011;-75
2022/03/06 07:12:07;;;;;;;;;92.00;65.00;;;;;9.49;54.14;101890.50;5084286;27;61696;-75
2022/03/06 07:14:33;;;;;;;;;97.67;68.67;;;;;9.51;54.17;101894.13;5083139;28;62249;-75
2022/03/06 07:16:59;;;;;;;;;96.67;65.33;;;;;9.60;54.07;101902.63;5084162;27;61801;-75
2022/03/06 07:19:24;;;;;;;;;91.00;63.67;;;;;9.62;53.92;101899.28;5084207;27;61806;-75
2022/03/06 07:21:50;;;;;;;;;89.67;68.00;;;;;9.62;53.81;101891.44;5083921;27;62187;-75
2022/03/06 07:24:15;;;;;;;;;92.00;68.00;;;;;9.69;53.16;101900.59;5083590;27;61784;-75
2022/03/06 07:26:41;;;;;;;;;89.67;69.00;;;;;9.75;53.51;101900.09;5084056;27;61857;-75
2022/03/06 07:29:06;;;;;;;;;95.33;69.67;;;;;9.82;53.54;101911.06;5084188;27;61916;-75
2022/03/06 07:31:32;;;;;;;;;88.67;66.00;;;;;9.89;53.24;101915.00;5084182;27;62126;-75
2022/03/06 07:33:57;;;;;;;;;93.00;66.33;;;;;9.93;52.84;101921.38;5083412;27;62889;-75
2022/03/06 07:36:23;;;;;;;;;91.67;65.67;;;;;10.06;52.86;101920.44;5082172;27;61901;-75
2022/03/06 07:38:48;;;;;;;;;90.00;66.00;;;;;10.06;52.41;101917.81;5084182;28;61744;-75
2022/03/06 07:41:14;;;;;;;;;92.67;68.33;;;;;10.10;52.46;101931.22;5084008;27;61738;-75
2022/03/06 07:43:39;;;;;;;;;91.33;65.67;;;;;10.21;52.69;101926.69;5081893;28;64875;-75
2022/03/06 07:46:04;;;;;;;;;83.67;62.67;;;;;10.27;52.33;101928.81;5082394;28;61909;-75
2022/03/06 07:48:30;;;;;;;;;86.67;65.67;;;;;10.45;52.31;101932.59;5099549;27;62207;-75
2022/03/06 07:50:55;;;;;;;;;91.33;67.33;;;;;10.54;51.51;101935.84;5083133;27;61822;-75
2022/03/06 07:53:21;;;;;;;;;88.00;64.67;;;;;10.58;51.63;101940.47;5082084;28;63670;-75
2022/03/06 07:55:46;;;;;;;;;82.00;63.67;;;;;10.61;51.60;101938.03;5099294;27;61767;-75
2022/03/06 07:58:12;;;;;;;;;89.67;63.00;;;;;10.71;51.34;101938.59;5083606;27;61629;-75
2022/03/06 08:00:37;;;;;;;;;88.67;65.00;;;;;10.73;51.04;101948.41;5099255;27;62112;-75
2022/03/06 08:03:03;;;;;;;;;93.33;65.67;;;;;10.69;51.18;101949.03;5081468;28;64665;-75
2022/03/06 08:05:28;;;;;;;;;90.67;64.67;;;;;10.75;51.00;101952.00;5083090;27;61897;-75
2022/03/06 08:07:54;;;;;;;;;89.33;64.67;;;;;10.82;50.68;101956.84;5083876;27;61797;-75
2022/03/06 08:10:19;;;;;;;;;92.33;67.33;;;;;10.88;50.45;101955.41;5081899;28;61886;-76
2022/03/06 08:12:47;;;;;;;;;89.67;65.00;;;;;10.94;50.62;101958.41;5082691;27;62305;-75
2022/03/06 08:15:13;;;;;;;;;91.67;64.33;;;;;11.01;50.10;101965.84;5082056;28;61929;-75
2022/03/06 08:17:39;;;;;;;;;91.33;64.67;;;;;11.01;49.96;101961.53;5083187;28;61866;-75
2022/03/06 08:20:05;;;;;;;;;81.00;61.67;;;;;11.04;50.17;101952.91;5081898;28;61829;-75
2022/03/06 08:22:31;;;;;;;;;84.67;63.67;;;;;11.13;49.78;101958.72;5097905;27;63844;-75
2022/03/06 08:24:57;;;;;;;;;93.33;66.67;;;;;11.21;49.74;101961.81;5082440;27;62109;-75
2022/03/06 08:27:22;;;;;;;;;82.00;63.00;;;;;11.28;48.90;101963.09;5082682;27;61844;-76
2022/03/06 08:29:49;;;;;;;;;79.67;59.00;;;;;11.26;49.40;101969.16;5083345;27;62047;-75
2022/03/06 08:32:15;;;;;;;;;89.67;66.00;;;;;11.33;49.45;101970.44;5080965;28;63077;-76
2022/03/06 08:34:41;;;;;;;;;78.67;62.33;;;;;11.42;49.08;101976.25;5081671;28;61939;-75
2022/03/06 08:37:07;;;;;;;;;82.33;59.67;;;;;11.43;48.68;101967.53;5082710;27;61778;-75
2022/03/06 08:39:33;;;;;;;;;80.33;59.67;;;;;11.42;48.93;101972.72;5083306;27;62063;-75
2022/03/06 08:41:58;;;;;;;;;86.67;62.33;;;;;11.45;48.97;101967.66;5080883;28;65018;-75
2022/03/06 08:44:24;;;;;;;;;90.00;62.67;;;;;11.51;48.57;101973.28;5081398;28;62001;-75
2022/03/06 08:46:50;;;;;;;;;86.33;62.33;;;;;11.57;48.56;101972.75;5082183;27;61729;-75
2022/03/06 08:49:15;;;;;;;;;80.67;63.00;;;;;11.63;48.28;101970.44;5082455;27;61735;-75
2022/03/06 08:51:41;;;;;;;;;83.33;63.00;;;;;11.64;48.06;101973.19;5079992;28;64639;-76
2022/03/06 08:54:06;;;;;;;;;77.67;59.67;;;;;11.62;48.40;101969.56;5079844;28;61710;-75
2022/03/06 08:56:32;;;;;;;;;80.67;62.67;;;;;11.64;47.89;101977.53;5082133;27;61837;-75
2022/03/06 08:58:57;;;;;;;;;74.33;59.00;;;;;11.66;47.81;101971.56;5082519;27;62091;-75
2022/03/06 09:01:23;;;;;;;;;85.33;63.00;;;;;11.72;47.81;101975.34;5079766;28;65035;-75
2022/03/06 09:03:48;;;;;;;;;80.00;62.00;;;;;11.72;47.44;101972.72;5080147;28;61800;-75
2022/03/06 09:06:14;;;;;;;;;78.00;59.00;;;;;11.76;47.37;101972.06;5080219;27;61841;-75
2022/03/06 09:08:39;;;;;;;;;80.00;59.67;;;;;11.83;47.73;101976.91;5080952;27;61802;-75
2022/03/06 09:11:08;;;;;;;;;86.00;60.33;;;;;11.93;47.69;101984.53;5080175;27;62902;-75
2022/03/06 09:13:38;;;;;;;;;77.67;59.00;;;;;12.00;47.54;101980.56;5080819;27;62774;-75
2022/03/06 09:16:06;;;;;;;;;86.33;59.67;;;;;12.05;47.49;101984.34;5079084;28;62013;-74
2022/03/06 09:18:35;;;;;;;;;76.67;57.33;;;;;12.07;46.04;101980.97;5079289;28;61920;-75
2022/03/06 09:21:01;;;;;;;;;72.33;54.67;;;;;12.09;45.93;101983.72;5077661;28;63405;-75
2022/03/06 09:23:26;;;;;;;;;71.00;52.00;;;;;12.14;45.92;101983.97;5080718;28;62821;-75
2022/03/06 09:25:52;;;;;;;;;72.67;55.00;;;;;12.21;45.62;101981.78;5080320;27;61877;-75
2022/03/06 09:28:17;;;;;;;;;74.67;56.00;;;;;12.28;46.22;101985.66;5078894;27;62109;-80
2022/03/06 09:30:43;;;;;;;;;73.00;56.00;;;;;12.31;45.06;101975.28;5079011;27;61782;-77
2022/03/06 09:33:08;;;;;;;;;67.67;51.67;;;;;12.34;44.11;101977.19;5080517;27;61745;-75
2022/03/06 09:35:34;;;;;;;;;62.67;52.00;;;;;12.35;43.42;101977.28;5080892;28;61870;-75
2022/03/06 09:37:59;;;;;;;;;73.00;53.33;;;;;12.36;43.42;101986.06;5081445;27;61825;-76
2022/03/06 09:40:25;;;;;;;;;75.33;55.33;;;;;12.45;44.18;101978.72;5078556;28;64129;-77
2022/03/06 09:42:51;;;;;;;;;59.50;48.00;;;;;12.50;44.96;101990.41;5070500;28;61889;-77
2022/03/06 09:45:16;;;;;;;;;69.67;54.67;;;;;12.58;44.30;101993.47;5084314;27;61961;-78
2022/03/06 09:47:45;;;;;;;;;70.00;52.67;;;;;12.67;44.04;101992.25;5082316;27;62120;-78
2022/03/06 09:50:12;;;;;;;;;72.67;55.33;;;;;12.71;43.73;101995.06;5080721;28;62164;-76
2022/03/06 09:52:40;;;;;;;;;68.33;52.00;;;;;12.74;43.82;101998.75;5084036;27;62039;-77
2022/03/06 09:55:07;;;;;;;;;75.25;55.00;;;;;12.81;43.73;102003.56;5082975;28;61834;-80
2022/03/06 09:57:33;;;;;;;;;74.75;53.00;;;;;12.85;43.45;102007.25;5083173;27;62109;-77
2022/03/06 10:00:00;;;;;;;;;71.00;51.50;;;;;12.92;43.70;101998.88;5082196;27;61933;-77
2022/03/06 10:02:26;;;;;;;;;63.67;49.00;;;;;12.98;43.75;102006.19;5088535;27;62003;-76
2022/03/06 10:04:52;;;;;;;;;69.67;52.67;;;;;12.99;43.16;102001.00;5083781;27;62183;-76
2022/03/06 10:07:21;;;;;;;;;70.25;50.50;;;;;13.01;43.05;102001.09;5083170;27;61955;-75
2022/03/06 10:09:51;;;;;;;;;71.25;50.25;;;;;13.03;42.99;102004.72;5078933;28;63728;-76
2022/03/06 10:12:20;;;;;;;;;67.75;49.50;;;;;13.12;43.07;102001.69;5065702;28;62007;-76
2022/03/06 10:14:46;;;;;;;;;62.75;46.00;;;;;13.15;42.53;101997.44;5083390;28;61963;-77
2022/03/06 10:17:15;;;;;;;;;62.25;47.25;;;;;13.18;41.14;101995.00;5082489;28;62087;-78
2022/03/06 10:19:48;;;;;;;;;64.50;47.50;;;;;13.20;41.52;101997.72;5082423;28;63716;-77
2022/03/06 10:22:14;;;;;;;;;70.67;54.67;;;;;13.29;41.86;101998.22;5083287;28;61806;-77
2022/03/06 10:24:46;;;;;;;;;61.75;47.25;;;;;13.39;42.28;101996.97;5082105;28;61933;-81
2022/03/06 10:27:12;;;;;;;;;58.75;45.00;;;;;13.37;40.27;101999.56;5083169;28;62175;-78
2022/03/06 10:29:37;;;;;;;;;64.75;48.00;;;;;13.35;40.32;101995.91;5082835;27;62075;-77
2022/03/06 10:32:07;;;;;;;;;61.75;45.75;;;;;13.47;41.54;101995.63;5084262;27;61741;-77
2022/03/06 10:34:37;;;;;;;;;60.00;48.50;;;;;13.58;40.46;101997.13;5084117;27;61703;-77
2022/03/06 10:37:03;;;;;;;;;52.00;41.50;;;;;13.63;38.20;101986.81;5081709;28;61735;-77
2022/03/06 10:39:32;;;;;;;;;61.25;44.00;;;;;13.73;39.13;101996.06;5083812;28;62774;-78
2022/03/06 10:41:58;;;;;;;;;48.50;38.75;;;;;13.68;38.81;101988.81;5097105;27;61978;-77
2022/03/06 10:44:47;;;;;;;;;56.50;43.50;;;;;13.81;38.34;101989.47;5082598;28;61949;-78
2022/03/06 10:47:13;;;;;;;;;55.50;43.50;;;;;13.97;40.04;101994.69;5083985;28;61842;-78
2022/03/06 10:49:39;;;;;;;;;54.25;42.00;;;;;14.14;40.15;101992.91;5079662;28;63340;-79
2022/03/06 10:52:17;;;;;;;;;57.00;43.25;;;;;14.27;40.49;101989.13;5076834;28;61958;-78
2022/03/06 10:54:54;;;;;;;;;53.75;37.50;;;;;14.38;42.04;101990.53;5076104;28;61850;-78
2022/03/06 10:59:26;;;;;;;;;47.75;36.25;;;;;14.26;34.33;101985.53;5116040;27;62363;-76
2022/03/06 11:01:52;;;;;;;;;39.00;27.50;;;;;14.41;34.52;101988.03;5116135;27;62042;-72
2022/03/06 11:04:19;;;;;;;;;34.00;30.75;;;;;14.64;39.26;101988.25;5118729;27;61939;-75
2022/03/06 11:06:46;;;;;;;;;32.25;30.00;;;;;14.83;34.81;101979.47;5116869;27;62663;-73
2022/03/06 11:09:13;;;;;;;;;42.50;34.00;;;;;14.97;33.32;101970.41;5117984;27;62355;-73